Time;durP1;ratioP1;P1;durP2;ratioP2;P2;SDS_P1;SDS_P2;PMS_P1;PMS_P2;Temp;Humidity;BMP_temperature;BMP_pressure;BME280_temperature;BME280_humidity;BME280_pressure;Samples;Min_cycle;Max_cycle;Signal;HPM_P1;HPM_P2
2022/04/30 00:00:57;;;;;;;3.37;2.60;;;19.40;47.90;20.30;101818.00;;;;5007882;28;20211;-50
2022/04/30 00:03:28;;;;;;;3.67;2.70;;;19.30;47.80;20.20;101803.00;;;;5007506;28;20210;-50
2022/04/30 00:05:54;;;;;;;3.10;2.80;;;19.40;48.00;20.20;101801.00;;;;5006963;28;20709;-51
2022/04/30 00:08:20;;;;;;;3.57;2.83;;;19.30;47.90;20.20;101804.00;;;;5007118;28;20223;-50
2022/04/30 00:10:46;;;;;;;3.17;2.80;;;19.30;47.90;20.20;101800.00;;;;5005918;28;20218;-49
2022/04/30 00:13:12;;;;;;;3.13;2.83;;;19.30;48.00;20.20;101798.00;;;;5006992;28;20195;-50
2022/04/30 00:15:38;;;;;;;3.20;2.83;;;19.30;48.10;20.20;101803.00;;;;5014370;28;20171;-50
2022/04/30 00:18:04;;;;;;;3.23;2.67;;;19.30;48.00;20.20;101797.00;;;;5008464;28;20824;-49
2022/04/30 00:20:29;;;;;;;3.00;2.70;;;19.30;48.00;20.20;101800.00;;;;5007319;28;20168;-49
2022/04/30 00:22:56;;;;;;;3.00;2.73;;;19.30;48.00;20.20;101801.00;;;;5006828;28;20569;-49
2022/04/30 00:25:21;;;;;;;2.90;2.63;;;19.20;47.90;20.20;101801.00;;;;5007007;28;20279;-49
2022/04/30 00:27:47;;;;;;;2.80;2.60;;;19.20;47.90;20.10;101803.00;;;;5006578;28;20659;-49
2022/04/30 00:30:14;;;;;;;2.83;2.63;;;19.20;47.90;20.10;101800.00;;;;5021628;28;20195;-49
2022/04/30 00:32:40;;;;;;;2.90;2.70;;;19.20;47.90;20.10;101800.00;;;;5007574;28;20229;-49
2022/04/30 00:35:07;;;;;;;3.73;2.87;;;19.20;47.90;20.10;101796.00;;;;5007013;28;20180;-49
2022/04/30 00:37:32;;;;;;;3.20;2.90;;;19.10;47.90;20.10;101794.00;;;;5005497;28;20184;-49
2022/04/30 00:39:58;;;;;;;3.00;2.67;;;19.10;47.80;20.10;101791.00;;;;5006934;28;20206;-49
2022/04/30 00:42:24;;;;;;;2.80;2.60;;;19.10;47.80;20.10;101808.00;;;;5006850;28;20211;-49
2022/04/30 00:44:49;;;;;;;3.20;2.90;;;19.10;47.80;20.10;101792.00;;;;5005615;28;20581;-50
2022/04/30 00:47:19;;;;;;;4.53;2.93;;;19.10;47.80;20.10;101794.00;;;;5006020;28;20559;-49
2022/04/30 00:49:48;;;;;;;3.67;2.77;;;19.10;47.80;20.10;101789.00;;;;5005400;28;20736;-50
2022/04/30 00:52:16;;;;;;;3.10;2.80;;;19.10;47.80;20.00;101786.00;;;;5006675;28;20195;-49
2022/04/30 00:54:46;;;;;;;2.90;2.70;;;19.00;47.70;20.00;101782.00;;;;5006995;28;20226;-49
2022/04/30 00:57:13;;;;;;;2.97;2.77;;;19.00;47.70;19.90;101788.00;;;;4989410;28;20234;-49
2022/04/30 00:59:39;;;;;;;2.77;2.57;;;19.10;47.80;19.90;101786.00;;;;4988991;28;20549;-49
2022/04/30 01:02:05;;;;;;;3.07;2.63;;;19.10;47.80;19.90;101781.00;;;;4988746;28;20284;-49
2022/04/30 01:04:30;;;;;;;3.20;2.90;;;19.00;47.60;19.90;101787.00;;;;5005083;28;20280;-50
2022/04/30 01:07:00;;;;;;;3.00;2.80;;;19.00;47.70;19.90;101795.00;;;;5006281;28;20241;-49
2022/04/30 01:09:29;;;;;;;2.90;2.70;;;19.00;47.70;19.90;101790.00;;;;5006184;28;20206;-49
2022/04/30 01:11:59;;;;;;;3.10;2.80;;;19.00;47.70;19.80;101792.00;;;;5006323;28;20174;-50
2022/04/30 01:14:29;;;;;;;3.10;2.90;;;19.00;47.70;19.80;101711.00;;;;5005818;28;20246;-50
2022/04/30 01:16:59;;;;;;;2.87;2.67;;;19.00;47.70;19.80;101790.00;;;;5006049;28;20778;-49
2022/04/30 01:19:26;;;;;;;2.90;2.70;;;19.00;47.70;19.80;101782.00;;;;5009605;28;20553;-49
2022/04/30 01:21:55;;;;;;;2.90;2.70;;;19.00;47.70;19.80;101789.00;;;;5014792;28;20182;-49
2022/04/30 01:24:22;;;;;;;3.13;2.80;;;18.90;47.70;19.80;101785.00;;;;4991190;28;20234;-50
2022/04/30 01:26:49;;;;;;;2.97;2.67;;;18.90;47.70;19.80;101777.00;;;;5004565;28;20283;-49
2022/04/30 01:29:17;;;;;;;3.10;2.70;;;18.90;47.70;19.80;101774.00;;;;4988852;28;20682;-50
2022/04/30 01:37:25;;;;;;;3.20;2.90;;;18.90;47.80;19.70;101783.00;;;;5005742;28;21108;-49
2022/04/30 01:40:09;;;;;;;3.20;2.90;;;18.80;47.60;19.70;101784.00;;;;5006191;28;20221;-49
2022/04/30 01:42:45;;;;;;;3.30;3.00;;;18.80;47.60;19.60;101782.00;;;;5010218;28;20183;-50
2022/04/30 01:45:11;;;;;;;3.10;2.80;;;18.80;47.70;19.60;101774.00;;;;5008964;28;20176;-49
2022/04/30 01:47:43;;;;;;;3.00;2.80;;;18.80;47.70;19.60;101775.00;;;;5009762;28;20191;-49
2022/04/30 01:50:09;;;;;;;3.40;3.10;;;18.80;47.80;19.60;101767.00;;;;5010078;28;20175;-49
2022/04/30 01:52:36;;;;;;;3.20;2.90;;;18.70;47.70;19.60;101776.00;;;;5010048;28;20183;-49
2022/04/30 01:55:01;;;;;;;2.90;2.70;;;18.80;47.90;19.60;101777.00;;;;5009917;28;20180;-50
2022/04/30 01:57:28;;;;;;;3.63;3.10;;;18.80;47.80;19.60;101776.00;;;;5009459;28;20194;-49
2022/04/30 01:59:58;;;;;;;3.00;2.80;;;18.80;47.80;19.60;101774.00;;;;5009359;28;20647;-49
2022/04/30 02:02:27;;;;;;;3.40;3.10;;;18.70;47.80;19.60;101759.00;;;;5024730;28;20328;-50
2022/04/30 02:04:54;;;;;;;3.90;2.93;;;18.70;47.80;19.60;101765.00;;;;5008699;28;20742;-49
2022/04/30 02:07:20;;;;;;;3.10;2.90;;;18.70;47.90;19.60;101753.00;;;;5008085;28;20274;-49
2022/04/30 02:09:47;;;;;;;3.37;3.07;;;18.70;47.90;19.50;101753.00;;;;5008414;28;20182;-50
2022/04/30 02:12:12;;;;;;;3.83;2.90;;;18.70;47.90;19.50;101747.00;;;;5024680;28;20233;-49
2022/04/30 02:14:40;;;;;;;3.70;2.80;;;18.70;48.00;19.50;101748.00;;;;5008634;28;20198;-49
2022/04/30 02:17:06;;;;;;;3.03;2.73;;;18.60;47.90;19.50;101728.00;;;;5009412;28;20180;-49
2022/04/30 02:20:18;;;;;;;2.80;2.60;;;18.60;47.80;19.50;101752.00;;;;5008056;28;20587;-49
2022/04/30 02:22:21;;;;;;;3.43;3.10;;;18.60;47.90;19.50;101745.00;;;;4994777;28;20797;-50
2022/04/30 02:24:47;;;;;;;3.13;2.83;;;18.60;47.80;19.50;101752.00;;;;5009653;28;20558;-50
2022/04/30 02:27:13;;;;;;;3.77;3.07;;;18.60;47.80;19.50;101743.00;;;;5000670;28;20191;-49
2022/04/30 02:29:39;;;;;;;3.93;3.10;;;18.60;47.80;19.20;101738.00;;;;4996956;28;20651;-50
2022/04/30 02:32:05;;;;;;;3.00;2.80;;;18.60;47.80;19.40;101743.00;;;;5009209;28;20182;-50
2022/04/30 02:34:31;;;;;;;3.23;2.90;;;18.60;47.80;19.40;101737.00;;;;5008890;28;20281;-49
2022/04/30 02:36:57;;;;;;;3.37;3.07;;;18.60;47.80;19.40;101742.00;;;;5009380;28;20273;-50
2022/04/30 02:39:22;;;;;;;3.47;2.80;;;18.50;47.70;19.40;101745.00;;;;5009314;28;20177;-49
2022/04/30 02:41:49;;;;;;;3.40;2.93;;;18.60;47.80;19.40;101743.00;;;;5009429;28;20707;-49
2022/04/30 02:44:15;;;;;;;3.47;3.07;;;18.50;47.70;19.40;101750.00;;;;5009001;28;20843;-49
2022/04/30 02:46:40;;;;;;;3.20;2.90;;;18.50;47.70;19.30;101740.00;;;;5008543;28;20197;-49
2022/04/30 02:49:06;;;;;;;3.40;3.10;;;18.50;47.70;19.30;101750.00;;;;5008717;28;20233;-49
2022/04/30 02:51:32;;;;;;;3.00;2.80;;;18.40;47.60;19.30;101749.00;;;;5008415;28;20636;-49
2022/04/30 02:53:57;;;;;;;3.37;3.07;;;18.40;47.60;19.30;101737.00;;;;5023075;28;20195;-49
2022/04/30 02:56:23;;;;;;;2.90;2.70;;;18.50;47.70;19.30;101735.00;;;;5008376;28;20440;-49
2022/04/30 03:01:33;;;;;;;3.43;3.13;;;18.40;47.60;19.20;101744.00;;;;5008621;28;20202;-49
2022/04/30 03:04:02;;;;;;;3.30;3.00;;;18.40;47.60;19.20;101738.00;;;;5008134;28;20184;-49
2022/04/30 03:06:32;;;;;;;3.03;2.83;;;18.40;47.70;19.20;101738.00;;;;5008385;28;20273;-49
2022/04/30 03:08:58;;;;;;;3.37;3.03;;;18.40;47.70;19.20;101727.00;;;;5007587;28;20187;-49
2022/04/30 03:11:23;;;;;;;3.10;2.90;;;18.40;47.70;19.20;101739.00;;;;5008937;28;20208;-49
2022/04/30 03:13:49;;;;;;;3.20;2.90;;;18.40;47.70;19.20;101743.00;;;;5008383;28;20195;-50
2022/04/30 03:21:46;;;;;;;3.47;2.90;;;18.30;47.60;19.10;101738.00;;;;5008568;28;20232;-48
2022/04/30 03:24:15;;;;;;;3.50;3.07;;;18.30;47.70;19.10;101735.00;;;;5008150;28;20217;-48
2022/04/30 03:26:43;;;;;;;3.07;2.80;;;18.30;47.70;19.10;101735.00;;;;5007845;28;20207;-48
2022/04/30 03:29:10;;;;;;;4.27;2.80;;;18.30;47.70;19.10;101741.00;;;;5008165;28;20205;-49
2022/04/30 03:31:36;;;;;;;3.10;2.87;;;18.30;47.70;19.10;101741.00;;;;5008357;28;20174;-49
2022/04/30 03:34:01;;;;;;;3.07;2.70;;;18.20;47.60;19.10;101739.00;;;;5007365;28;20205;-49
2022/04/30 03:36:29;;;;;;;3.20;2.90;;;18.20;47.70;19.10;101744.00;;;;5007861;28;20182;-49
2022/04/30 03:38:55;;;;;;;4.90;3.10;;;18.30;47.90;19.10;101735.00;;;;5007985;28;20654;-49
2022/04/30 03:41:20;;;;;;;3.27;2.80;;;18.20;47.80;19.10;101737.00;;;;5008259;28;20190;-48
2022/04/30 03:43:46;;;;;;;3.20;2.90;;;18.20;47.70;19.00;101742.00;;;;5008069;28;20714;-48
2022/04/30 03:46:12;;;;;;;3.90;2.97;;;18.20;47.80;19.00;101742.00;;;;5007547;28;20174;-48
2022/04/30 03:48:37;;;;;;;3.97;3.00;;;18.20;47.70;19.00;101739.00;;;;5007790;28;20194;-49
2022/04/30 03:51:05;;;;;;;2.80;2.60;;;18.20;47.80;19.00;101749.00;;;;5007723;28;20168;-49
2022/04/30 03:53:31;;;;;;;3.00;2.70;;;18.20;47.80;19.00;101749.00;;;;5007480;28;20230;-50
2022/04/30 03:55:57;;;;;;;3.30;3.00;;;18.20;47.70;19.00;101753.00;;;;5014006;28;20337;-48
2022/04/30 03:58:22;;;;;;;3.23;2.77;;;18.10;47.60;19.00;101746.00;;;;5007602;28;20716;-49
2022/04/30 04:00:48;;;;;;;2.90;2.70;;;18.10;47.70;18.90;101751.00;;;;5007653;28;20188;-49
2022/04/30 04:03:14;;;;;;;6.47;2.97;;;18.10;47.60;18.90;101749.00;;;;5007630;28;20846;-49
2022/04/30 04:05:40;;;;;;;7.23;2.67;;;18.00;47.80;18.90;101741.00;;;;5006606;28;20204;-48
2022/04/30 04:08:11;;;;;;;4.07;2.83;;;18.10;48.00;18.90;101756.00;;;;5006106;28;20192;-49
2022/04/30 04:10:38;;;;;;;2.87;2.60;;;18.10;47.90;18.90;101756.00;;;;5021001;28;20164;-53
2022/04/30 04:18:32;;;;;;;5.40;2.80;;;18.00;47.90;18.90;101754.00;;;;5013924;28;20185;-49
2022/04/30 04:20:58;;;;;;;3.33;3.03;;;18.00;47.90;18.90;101752.00;;;;5011162;28;20173;-48
2022/04/30 04:23:23;;;;;;;3.20;2.90;;;18.00;47.80;18.90;101751.00;;;;5010506;28;20206;-49
2022/04/30 04:25:59;;;;;;;4.53;2.90;;;18.00;47.80;18.90;101749.00;;;;5007275;28;20176;-48
2022/04/30 04:28:25;;;;;;;2.90;2.60;;;18.00;47.80;18.90;101769.00;;;;5007071;28;20193;-48
2022/04/30 04:30:50;;;;;;;4.67;2.60;;;18.00;47.80;18.80;101761.00;;;;5007185;28;20169;-48
2022/04/30 04:33:16;;;;;;;6.00;2.80;;;18.00;47.70;18.80;101773.00;;;;5006700;28;20197;-48
2022/04/30 04:35:42;;;;;;;3.73;2.57;;;18.00;47.60;18.80;101758.00;;;;4999413;28;20189;-48
2022/04/30 04:38:08;;;;;;;3.07;2.50;;;17.90;47.60;18.80;101757.00;;;;4995508;28;20188;-48
2022/04/30 04:40:35;;;;;;;2.93;2.60;;;17.90;47.60;18.80;101758.00;;;;4986947;28;20539;-50
2022/04/30 04:43:00;;;;;;;3.63;2.63;;;17.90;47.60;18.80;101767.00;;;;4986681;28;20216;-51
2022/04/30 04:45:27;;;;;;;4.23;2.63;;;17.90;47.70;18.80;101759.00;;;;4987255;28;20165;-49
2022/04/30 04:47:52;;;;;;;3.77;2.80;;;17.90;47.70;18.80;101762.00;;;;4986619;28;20185;-49
2022/04/30 04:50:18;;;;;;;2.90;2.70;;;17.80;47.60;18.80;101770.00;;;;4987200;28;20177;-49
2022/04/30 04:52:44;;;;;;;3.23;2.60;;;17.80;47.60;18.80;101769.00;;;;4986747;28;20171;-49
2022/04/30 04:55:10;;;;;;;3.33;2.80;;;17.80;47.60;18.80;101763.00;;;;4985624;28;20244;-50
2022/04/30 04:57:36;;;;;;;2.87;2.57;;;17.80;47.60;18.70;101771.00;;;;4986239;28;20175;-48
2022/04/30 05:00:05;;;;;;;4.37;2.50;;;17.80;47.60;18.70;101775.00;;;;4992333;28;20180;-50
2022/04/30 05:02:30;;;;;;;3.10;2.60;;;17.80;47.60;18.70;101771.00;;;;4993835;28;20213;-49
2022/04/30 05:04:56;;;;;;;3.60;2.87;;;17.80;47.60;18.70;101775.00;;;;4986593;28;20178;-50
2022/04/30 05:07:22;;;;;;;3.63;3.00;;;17.70;47.50;18.70;101789.00;;;;4984890;28;20188;-49
2022/04/30 05:09:48;;;;;;;5.63;2.83;;;17.80;47.60;18.70;101784.00;;;;4986640;28;20671;-50
2022/04/30 05:12:13;;;;;;;3.00;2.70;;;17.80;47.60;18.40;101790.00;;;;4986191;28;20645;-49
2022/04/30 05:14:39;;;;;;;2.70;2.50;;;17.70;47.50;18.60;101791.00;;;;4986209;28;20211;-49
2022/04/30 05:17:06;;;;;;;4.90;2.70;;;17.70;47.50;18.60;101796.00;;;;4986128;28;20207;-49
2022/04/30 05:19:32;;;;;;;4.20;2.67;;;17.70;47.60;18.60;101798.00;;;;4986376;28;20180;-49
2022/04/30 05:21:58;;;;;;;4.87;2.80;;;17.70;47.70;18.60;101790.00;;;;4986317;28;20181;-49
2022/04/30 05:24:23;;;;;;;3.20;2.87;;;17.70;47.90;18.60;101787.00;;;;4985901;28;20204;-50
2022/04/30 05:26:49;;;;;;;3.47;2.73;;;17.70;48.00;18.60;101798.00;;;;4986056;28;20609;-49
2022/04/30 05:29:16;;;;;;;4.10;2.73;;;17.70;48.10;18.60;101798.00;;;;4986470;28;20173;-55
2022/04/30 05:31:41;;;;;;;3.00;2.70;;;17.70;48.10;18.60;101799.00;;;;4986479;28;20809;-50
2022/04/30 05:34:07;;;;;;;5.10;2.50;;;17.70;48.10;18.60;101809.00;;;;4985306;28;20200;-49
2022/04/30 05:36:33;;;;;;;4.73;3.00;;;17.60;48.00;18.60;101808.00;;;;4986335;28;20176;-50
2022/04/30 05:39:01;;;;;;;2.70;2.50;;;17.60;48.10;18.60;101808.00;;;;4986354;28;20195;-49
2022/04/30 05:41:28;;;;;;;3.47;2.70;;;17.60;48.20;18.50;101806.00;;;;4986523;28;20174;-49
2022/04/30 05:43:54;;;;;;;3.00;2.70;;;17.60;48.20;18.50;101813.00;;;;4986053;28;20265;-49
2022/04/30 05:46:19;;;;;;;2.80;2.60;;;17.60;48.10;18.50;101754.00;;;;4986166;28;20234;-49
2022/04/30 05:48:45;;;;;;;3.37;2.60;;;17.60;48.20;18.50;101805.00;;;;4986218;28;20657;-49
2022/04/30 05:51:11;;;;;;;3.73;2.73;;;17.60;48.20;18.50;101794.00;;;;4986106;28;20180;-49
2022/04/30 05:53:36;;;;;;;3.10;2.60;;;17.60;48.20;18.50;101803.00;;;;4985780;28;20192;-49
2022/04/30 05:56:02;;;;;;;3.37;2.63;;;17.50;48.10;18.50;101802.00;;;;4986203;28;20645;-50
2022/04/30 05:58:28;;;;;;;3.03;2.57;;;17.60;48.30;18.20;101800.00;;;;4986285;28;20299;-49
2022/04/30 06:00:54;;;;;;;4.37;2.53;;;17.50;48.20;18.50;101803.00;;;;4984616;28;20251;-50
2022/04/30 06:03:20;;;;;;;3.17;2.50;;;17.50;48.10;18.40;101802.00;;;;4985747;28;20692;-49
2022/04/30 06:05:46;;;;;;;2.50;2.30;;;17.50;48.10;18.40;101810.00;;;;4989249;28;20179;-49
2022/04/30 06:08:11;;;;;;;2.77;2.57;;;17.50;48.10;18.40;101802.00;;;;4994338;28;20199;-49
2022/04/30 06:10:37;;;;;;;2.70;2.50;;;17.50;48.20;18.40;101798.00;;;;4987185;28;20876;-50
2022/04/30 06:13:03;;;;;;;2.73;2.30;;;17.50;48.20;18.30;101804.00;;;;4985578;28;20746;-49
2022/04/30 06:15:29;;;;;;;2.50;2.30;;;17.50;48.20;18.40;101803.00;;;;4986168;28;20204;-48
2022/04/30 06:17:55;;;;;;;3.13;2.60;;;17.50;48.20;18.40;101802.00;;;;4986098;28;20255;-49
2022/04/30 06:20:20;;;;;;;2.60;2.40;;;17.50;48.20;18.30;101810.00;;;;4986074;28;20183;-49
2022/04/30 06:22:46;;;;;;;3.13;2.50;;;17.50;48.20;18.30;101812.00;;;;4985519;28;20442;-50
2022/04/30 06:25:12;;;;;;;3.40;2.60;;;17.50;48.30;18.30;101815.00;;;;4985862;28;20173;-49
2022/04/30 06:27:38;;;;;;;2.70;2.50;;;17.50;48.30;18.30;101817.00;;;;4986675;28;20247;-49
2022/04/30 06:30:06;;;;;;;2.63;2.40;;;17.40;48.10;18.30;101821.00;;;;4989644;28;20176;-49
2022/04/30 06:32:32;;;;;;;2.60;2.40;;;17.40;48.20;18.30;101819.00;;;;4988746;28;20668;-49
2022/04/30 06:34:58;;;;;;;4.00;2.40;;;17.40;48.40;18.30;101833.00;;;;4988415;28;20169;-50
2022/04/30 06:37:23;;;;;;;2.90;2.57;;;17.40;48.40;18.30;101823.00;;;;4989213;28;20547;-50
2022/04/30 06:39:49;;;;;;;3.20;2.40;;;17.40;48.40;18.30;101830.00;;;;4989242;28;20181;-49
2022/04/30 06:42:15;;;;;;;4.70;2.40;;;17.40;48.30;18.30;101828.00;;;;4988830;28;20200;-50
2022/04/30 06:44:41;;;;;;;4.70;2.70;;;17.40;48.30;18.30;101828.00;;;;4989225;28;20200;-49
2022/04/30 06:47:06;;;;;;;3.43;2.57;;;17.40;48.50;18.30;101826.00;;;;4988708;28;20239;-50
2022/04/30 06:49:32;;;;;;;3.60;2.50;;;17.40;48.60;18.30;101823.00;;;;4987454;28;20227;-49
2022/04/30 06:51:58;;;;;;;2.70;2.50;;;17.40;48.60;18.30;101824.00;;;;4987644;28;20180;-49
2022/04/30 06:57:08;;;;;;;2.50;2.20;;;17.30;48.70;18.30;101831.00;;;;5008167;28;20167;-49
2022/04/30 06:59:37;;;;;;;2.53;2.33;;;17.30;48.60;18.30;101825.00;;;;5008067;28;20175;-50
2022/04/30 07:02:13;;;;;;;5.77;2.50;;;17.30;48.70;18.30;101824.00;;;;5008041;28;20187;-50
2022/04/30 07:04:42;;;;;;;4.30;2.57;;;17.30;49.30;18.20;101826.00;;;;5008275;28;20195;-49
2022/04/30 07:07:09;;;;;;;7.60;2.60;;;17.30;49.00;18.20;101819.00;;;;5008241;28;20187;-50
2022/04/30 07:09:35;;;;;;;3.90;2.50;;;17.30;49.10;18.20;101823.00;;;;5007485;28;20183;-49
2022/04/30 07:12:06;;;;;;;7.40;2.80;;;17.30;49.00;18.20;101819.00;;;;5008470;28;20254;-49
2022/04/30 07:14:35;;;;;;;3.50;2.40;;;17.30;49.10;18.20;101802.00;;;;5008066;28;20202;-49
2022/04/30 07:17:06;;;;;;;4.13;2.50;;;17.30;49.00;18.20;101816.00;;;;5006479;28;20184;-49
2022/04/30 07:19:32;;;;;;;4.57;2.30;;;17.30;49.30;18.30;101827.00;;;;5008527;28;20160;-49
2022/04/30 07:21:58;;;;;;;4.07;2.33;;;17.30;49.30;18.20;101829.00;;;;5007969;28;20171;-50
2022/04/30 07:24:23;;;;;;;4.37;2.70;;;17.30;49.50;18.30;101827.00;;;;5008253;28;20206;-50
2022/04/30 07:26:49;;;;;;;6.50;2.87;;;17.30;49.60;18.30;101838.00;;;;5008150;28;20250;-48
2022/04/30 07:29:15;;;;;;;4.23;2.60;;;17.30;49.70;18.30;101823.00;;;;5009430;28;20663;-48
2022/04/30 07:31:41;;;;;;;6.77;2.93;;;17.30;49.70;18.30;101831.00;;;;4893496;28;20187;-48
2022/04/30 07:34:09;;;;;;;6.57;2.70;;;17.30;49.70;18.30;101829.00;;;;5007499;28;20195;-50
2022/04/30 07:36:35;;;;;;;9.40;3.20;;;17.30;49.70;18.30;101828.00;;;;5007621;28;20164;-50
2022/04/30 07:39:00;;;;;;;11.40;2.87;;;17.20;50.10;18.30;101827.00;;;;5006805;28;20174;-49
2022/04/30 07:41:26;;;;;;;11.00;2.83;;;17.30;50.20;18.30;101828.00;;;;5007635;28;20160;-48
2022/04/30 07:43:52;;;;;;;11.63;3.00;;;17.30;50.20;18.20;101820.00;;;;5008160;28;20201;-48
2022/04/30 07:46:17;;;;;;;6.03;2.87;;;17.30;50.20;18.20;101825.00;;;;5007364;28;20950;-48
2022/04/30 07:48:43;;;;;;;9.37;3.20;;;17.30;50.10;18.30;101823.00;;;;5007576;28;20200;-48
2022/04/30 07:51:19;;;;;;;8.37;2.60;;;17.30;50.00;18.30;101819.00;;;;5007580;28;20184;-48
2022/04/30 07:53:45;;;;;;;7.70;2.67;;;17.20;50.00;18.30;101823.00;;;;5007385;28;20251;-48
2022/04/30 07:56:11;;;;;;;10.03;3.33;;;17.30;50.00;18.20;101808.00;;;;5008067;28;20398;-48
2022/04/30 07:58:37;;;;;;;8.43;2.77;;;17.30;50.00;18.20;101823.00;;;;5007581;28;20182;-47
2022/04/30 08:01:03;;;;;;;7.13;2.83;;;17.20;49.90;18.30;101817.00;;;;5007178;28;20576;-47
2022/04/30 08:03:29;;;;;;;5.50;2.57;;;17.20;49.80;18.20;101817.00;;;;5008051;28;20299;-47
2022/04/30 08:05:54;;;;;;;6.67;2.70;;;17.20;49.80;18.20;101815.00;;;;5008035;28;20179;-46
2022/04/30 08:08:20;;;;;;;7.93;2.70;;;17.20;49.80;18.20;101812.00;;;;5022482;28;20196;-46
2022/04/30 08:10:46;;;;;;;5.47;2.73;;;17.20;50.00;18.20;101816.00;;;;5006948;28;20648;-48
2022/04/30 08:13:12;;;;;;;8.00;3.27;;;17.20;50.00;18.20;101816.00;;;;5012248;28;20249;-47
2022/04/30 08:15:43;;;;;;;9.60;3.30;;;17.30;50.20;18.20;101803.00;;;;5019830;28;20168;-47
2022/04/30 08:18:10;;;;;;;14.90;3.80;;;17.30;50.20;18.20;101815.00;;;;5026532;28;20218;-48
2022/04/30 08:20:37;;;;;;;9.27;3.40;;;17.30;50.20;18.20;101811.00;;;;5027184;28;20630;-47
2022/04/30 08:23:04;;;;;;;13.57;3.30;;;17.30;50.20;18.20;101814.00;;;;5026795;28;20218;-48
2022/04/30 08:25:30;;;;;;;15.27;3.97;;;17.20;50.70;18.20;101820.00;;;;5025360;28;20178;-47
2022/04/30 08:27:56;;;;;;;10.30;3.53;;;17.20;50.10;18.20;101816.00;;;;5026549;28;20198;-47
2022/04/30 08:30:21;;;;;;;13.00;3.60;;;17.20;50.10;18.20;101816.00;;;;5030826;28;20237;-48
2022/04/30 08:32:50;;;;;;;7.07;3.00;;;17.20;50.10;18.20;101822.00;;;;5035755;28;20203;-47
2022/04/30 08:35:16;;;;;;;8.53;3.17;;;17.20;50.10;18.20;101818.00;;;;5035775;28;20167;-47
2022/04/30 08:37:41;;;;;;;7.30;3.40;;;17.20;50.10;18.20;101821.00;;;;5033333;28;20186;-48
2022/04/30 08:40:08;;;;;;;11.13;3.10;;;17.20;50.10;18.20;101809.00;;;;5033194;28;20248;-46
2022/04/30 08:42:33;;;;;;;7.63;3.10;;;17.20;50.10;18.20;101815.00;;;;5031765;28;20553;-47
2022/04/30 08:45:02;;;;;;;8.67;3.20;;;17.20;50.10;18.20;101810.00;;;;5029292;28;20179;-47
2022/04/30 08:47:29;;;;;;;7.73;2.80;;;17.20;50.10;18.20;101821.00;;;;5026947;28;20183;-47
2022/04/30 08:49:55;;;;;;;5.77;2.70;;;17.20;50.10;18.20;101816.00;;;;5026206;28;20187;-48
2022/04/30 08:52:20;;;;;;;6.37;3.20;;;17.20;50.10;18.20;101815.00;;;;5008718;28;20576;-48
2022/04/30 08:54:46;;;;;;;5.70;2.87;;;17.20;50.10;18.20;101817.00;;;;5026591;28;20198;-47
2022/04/30 08:57:13;;;;;;;4.10;2.60;;;17.20;50.10;18.20;101811.00;;;;5026294;28;20174;-47
2022/04/30 08:59:39;;;;;;;6.53;2.70;;;17.20;50.10;18.20;101817.00;;;;5026362;28;20183;-47
2022/04/30 09:02:11;;;;;;;6.13;2.50;;;17.20;50.10;18.20;101808.00;;;;5026197;28;20926;-47
2022/04/30 09:04:43;;;;;;;4.40;2.60;;;17.10;50.10;18.20;101816.00;;;;5025872;28;20191;-47
2022/04/30 09:07:21;;;;;;;4.20;2.80;;;17.20;50.20;18.00;101815.00;;;;5026069;28;20562;-47
2022/04/30 09:10:00;;;;;;;8.63;2.70;;;17.20;50.20;18.20;101797.00;;;;5027361;28;20191;-48
2022/04/30 09:12:29;;;;;;;6.23;2.80;;;17.20;50.20;18.20;101797.00;;;;5038641;28;20216;-48
2022/04/30 09:14:55;;;;;;;3.63;2.40;;;17.20;50.30;18.20;101787.00;;;;5035773;28;20746;-48
2022/04/30 09:17:22;;;;;;;3.83;2.50;;;17.20;50.30;18.20;101804.00;;;;5031288;28;20185;-48
2022/04/30 09:19:53;;;;;;;4.57;2.70;;;17.20;50.50;18.20;101804.00;;;;5033237;28;20395;-47
2022/04/30 09:22:36;;;;;;;4.80;2.60;;;17.20;50.30;18.20;101779.00;;;;5028847;28;20386;-47
2022/04/30 09:25:04;;;;;;;4.50;2.37;;;17.20;50.30;18.20;101793.00;;;;5027264;28;20289;-47
2022/04/30 09:27:31;;;;;;;7.97;2.50;;;17.20;50.40;18.20;101798.00;;;;5024880;28;20541;-47
2022/04/30 09:29:58;;;;;;;3.67;2.13;;;17.20;50.30;18.20;101795.00;;;;5029520;28;20213;-48
2022/04/30 09:32:25;;;;;;;4.93;2.70;;;17.20;50.40;18.20;101796.00;;;;5027779;28;20571;-47
2022/04/30 09:37:41;;;;;;;2.63;2.30;;;17.20;51.00;18.20;101783.00;;;;5025614;28;20170;-47
2022/04/30 09:40:27;;;;;;;3.27;2.30;;;17.20;50.40;18.20;101784.00;;;;5026017;28;20175;-47
2022/04/30 09:42:53;;;;;;;4.40;2.40;;;17.20;50.40;18.20;101779.00;;;;5026075;28;20202;-47
2022/04/30 09:45:26;;;;;;;5.43;2.93;;;17.20;50.50;18.20;101782.00;;;;5026051;28;20819;-47
2022/04/30 09:47:53;;;;;;;3.63;2.13;;;17.20;50.60;18.20;101781.00;;;;5025393;28;20183;-47
2022/04/30 09:53:56;;;;;;;2.30;2.10;;;17.30;50.70;18.20;101782.00;;;;5024561;28;20206;-47
2022/04/30 09:55:54;;;;;;;5.33;2.23;;;17.20;50.70;18.20;101779.00;;;;5025358;28;20189;-47
2022/04/30 09:58:24;;;;;;;5.57;2.30;;;17.30;51.00;18.30;101775.00;;;;5025823;28;20171;-47
2022/04/30 10:00:56;;;;;;;3.23;2.20;;;17.30;50.90;18.30;101770.00;;;;5025593;28;20674;-47
2022/04/30 10:03:30;;;;;;;4.40;2.20;;;17.30;50.90;18.30;101765.00;;;;5027902;28;20213;-47
2022/04/30 10:06:04;;;;;;;3.20;2.40;;;17.30;50.90;18.30;101761.00;;;;5028297;28;20175;-47
2022/04/30 10:08:33;;;;;;;4.53;2.27;;;17.30;50.90;18.30;101757.00;;;;5029337;28;20186;-47
2022/04/30 10:11:33;;;;;;;3.07;2.20;;;17.30;50.90;18.30;101758.00;;;;5027923;28;20584;-47
2022/04/30 10:14:48;;;;;;;4.90;2.27;;;17.30;50.90;18.30;101764.00;;;;5029153;28;20191;-46
2022/04/30 10:17:16;;;;;;;4.10;2.50;;;17.30;50.90;18.30;101762.00;;;;5012156;28;20187;-46
2022/04/30 10:20:15;;;;;;;2.53;2.27;;;17.30;50.90;18.30;101768.00;;;;5028520;28;20183;-46
2022/04/30 10:22:51;;;;;;;3.57;2.17;;;17.30;50.90;18.30;101764.00;;;;5028825;28;20549;-47
2022/04/30 10:25:17;;;;;;;2.67;2.13;;;17.30;51.00;18.30;101763.00;;;;5029003;28;20190;-48
2022/04/30 10:27:47;;;;;;;3.53;2.20;;;17.30;51.00;18.30;101751.00;;;;5029029;28;20195;-48
2022/04/30 10:30:27;;;;;;;6.23;2.80;;;17.40;51.60;18.30;101761.00;;;;5029311;28;20178;-47
2022/04/30 10:33:01;;;;;;;3.30;2.30;;;17.40;51.70;18.30;101763.00;;;;5028768;28;20198;-48
2022/04/30 10:35:45;;;;;;;5.67;2.70;;;17.40;51.70;18.30;101761.00;;;;5028929;28;20171;-48
2022/04/30 10:38:21;;;;;;;4.10;2.30;;;17.40;51.80;18.30;101756.00;;;;5032220;28;20656;-48
2022/04/30 10:40:57;;;;;;;4.60;2.43;;;17.40;51.80;18.30;101749.00;;;;5029514;28;20175;-46
2022/04/30 10:43:35;;;;;;;2.53;2.20;;;17.40;51.70;18.30;101745.00;;;;5028861;28;20195;-49
2022/04/30 10:46:20;;;;;;;3.33;2.30;;;17.40;51.70;18.30;101742.00;;;;5019861;28;20263;-47
2022/04/30 10:48:46;;;;;;;5.33;2.20;;;17.40;51.80;18.30;101735.00;;;;5016718;28;20183;-46
2022/04/30 10:51:14;;;;;;;2.73;2.20;;;17.40;51.80;18.30;101730.00;;;;5014628;28;20715;-46
2022/04/30 10:53:42;;;;;;;2.77;2.10;;;17.30;51.70;18.30;101726.00;;;;5008726;28;20211;-46
2022/04/30 10:56:08;;;;;;;5.30;2.03;;;17.40;51.90;18.30;101732.00;;;;5009064;28;20621;-47
2022/04/30 10:58:36;;;;;;;4.27;2.10;;;17.40;51.90;18.30;101726.00;;;;5014136;28;20182;-47
2022/04/30 11:01:16;;;;;;;4.03;2.40;;;17.40;51.90;18.30;101724.00;;;;5017514;28;20188;-48
2022/04/30 11:03:46;;;;;;;3.93;2.10;;;17.40;51.90;18.30;101720.00;;;;5015822;28;20269;-47
2022/04/30 11:06:18;;;;;;;2.77;2.00;;;17.50;52.10;18.30;101718.00;;;;5009060;28;20188;-48
2022/04/30 11:08:44;;;;;;;2.50;2.17;;;17.50;52.40;18.30;101712.00;;;;5009953;28;20245;-47
2022/04/30 11:11:09;;;;;;;4.60;2.20;;;17.50;52.20;18.40;101716.00;;;;5007780;28;20183;-46
2022/04/30 11:13:36;;;;;;;3.27;2.20;;;17.60;52.60;18.40;101720.00;;;;5007798;28;20199;-48
2022/04/30 11:16:12;;;;;;;2.37;2.10;;;17.60;52.60;18.40;101707.00;;;;5015923;28;20237;-47
2022/04/30 11:18:38;;;;;;;4.23;2.20;;;17.60;52.30;18.50;101721.00;;;;5018358;28;20730;-46